sensor_id;sensor_type;location;lat;lon;timestamp;P1;durP1;ratioP1;P2;durP2;ratioP2
29550;SDS011;16488;52.396;10.696;2022-10-16T00:00:30;4.18;;;1.00;;
29550;SDS011;16488;52.396;10.696;2022-10-16T00:02:56;2.60;;;0.93;;
29550;SDS011;16488;52.396;10.696;2022-10-16T00:05:21;5.13;;;1.00;;
29550;SDS011;16488;52.396;10.696;2022-10-16T00:07:47;1.90;;;0.90;;
29550;SDS011;16488;52.396;10.696;2022-10-16T00:10:13;7.93;;;1.20;;
29550;SDS011;16488;52.396;10.696;2022-10-16T00:12:38;5.15;;;1.35;;
29550;SDS011;16488;52.396;10.696;2022-10-16T00:15:04;3.27;;;1.33;;
29550;SDS011;16488;52.396;10.696;2022-10-16T00:17:30;5.68;;;1.27;;
29550;SDS011;16488;52.396;10.696;2022-10-16T00:19:56;4.57;;;1.20;;
29550;SDS011;16488;52.396;10.696;2022-10-16T00:22:21;4.90;;;1.30;;
29550;SDS011;16488;52.396;10.696;2022-10-16T00:24:47;3.67;;;1.13;;
29550;SDS011;16488;52.396;10.696;2022-10-16T00:27:13;3.42;;;1.80;;
29550;SDS011;16488;52.396;10.696;2022-10-16T00:29:38;8.55;;;1.88;;
29550;SDS011;16488;52.396;10.696;2022-10-16T00:32:04;8.00;;;1.70;;
29550;SDS011;16488;52.396;10.696;2022-10-16T00:34:29;5.03;;;1.63;;
29550;SDS011;16488;52.396;10.696;2022-10-16T00:36:55;2.13;;;1.30;;
29550;SDS011;16488;52.396;10.696;2022-10-16T00:39:20;3.77;;;1.50;;
29550;SDS011;16488;52.396;10.696;2022-10-16T00:41:47;5.13;;;1.65;;
29550;SDS011;16488;52.396;10.696;2022-10-16T00:47:17;5.97;;;1.25;;
29550;SDS011;16488;52.396;10.696;2022-10-16T00:49:46;5.38;;;1.42;;
29550;SDS011;16488;52.396;10.696;2022-10-16T00:52:14;5.40;;;1.92;;
29550;SDS011;16488;52.396;10.696;2022-10-16T00:54:40;2.45;;;1.23;;
29550;SDS011;16488;52.396;10.696;2022-10-16T00:57:05;7.68;;;1.40;;
29550;SDS011;16488;52.396;10.696;2022-10-16T00:59:33;14.07;;;1.90;;
29550;SDS011;16488;52.396;10.696;2022-10-16T01:02:04;3.15;;;1.25;;
29550;SDS011;16488;52.396;10.696;2022-10-16T01:04:32;5.15;;;1.40;;
29550;SDS011;16488;52.396;10.696;2022-10-16T01:07:20;2.95;;;1.35;;
29550;SDS011;16488;52.396;10.696;2022-10-16T01:13:11;6.25;;;2.00;;
29550;SDS011;16488;52.396;10.696;2022-10-16T01:20:27;6.45;;;2.42;;
29550;SDS011;16488;52.396;10.696;2022-10-16T01:23:07;16.15;;;1.70;;
29550;SDS011;16488;52.396;10.696;2022-10-16T01:31:20;7.57;;;2.10;;
29550;SDS011;16488;52.396;10.696;2022-10-16T01:33:51;6.57;;;2.10;;
29550;SDS011;16488;52.396;10.696;2022-10-16T01:36:27;6.63;;;1.67;;
29550;SDS011;16488;52.396;10.696;2022-10-16T01:39:02;4.57;;;1.60;;
29550;SDS011;16488;52.396;10.696;2022-10-16T01:41:32;10.40;;;2.25;;
29550;SDS011;16488;52.396;10.696;2022-10-16T01:44:17;5.95;;;2.33;;
29550;SDS011;16488;52.396;10.696;2022-10-16T01:46:47;6.82;;;2.33;;
29550;SDS011;16488;52.396;10.696;2022-10-16T01:49:15;10.57;;;2.45;;
29550;SDS011;16488;52.396;10.696;2022-10-16T01:51:43;4.28;;;1.95;;
29550;SDS011;16488;52.396;10.696;2022-10-16T01:54:12;7.07;;;2.05;;
29550;SDS011;16488;52.396;10.696;2022-10-16T01:56:40;8.57;;;1.95;;
29550;SDS011;16488;52.396;10.696;2022-10-16T01:59:09;10.23;;;2.30;;
29550;SDS011;16488;52.396;10.696;2022-10-16T02:01:38;13.20;;;3.72;;
29550;SDS011;16488;52.396;10.696;2022-10-16T02:04:15;5.32;;;1.70;;
29550;SDS011;16488;52.396;10.696;2022-10-16T02:06:52;9.60;;;2.22;;
29550;SDS011;16488;52.396;10.696;2022-10-16T02:11:43;4.65;;;1.60;;
29550;SDS011;16488;52.396;10.696;2022-10-16T02:14:09;3.78;;;2.42;;
29550;SDS011;16488;52.396;10.696;2022-10-16T02:16:36;4.03;;;2.10;;
29550;SDS011;16488;52.396;10.696;2022-10-16T02:19:10;8.60;;;2.30;;
29550;SDS011;16488;52.396;10.696;2022-10-16T02:26:55;7.88;;;2.70;;
29550;SDS011;16488;52.396;10.696;2022-10-16T02:29:30;3.00;;;2.70;;
29550;SDS011;16488;52.396;10.696;2022-10-16T02:32:03;7.35;;;2.83;;
29550;SDS011;16488;52.396;10.696;2022-10-16T02:34:31;2.65;;;2.35;;
29550;SDS011;16488;52.396;10.696;2022-10-16T02:36:58;3.95;;;2.92;;
29550;SDS011;16488;52.396;10.696;2022-10-16T02:39:27;3.13;;;2.30;;
29550;SDS011;16488;52.396;10.696;2022-10-16T02:41:53;4.00;;;2.63;;
29550;SDS011;16488;52.396;10.696;2022-10-16T02:44:19;3.20;;;2.50;;
29550;SDS011;16488;52.396;10.696;2022-10-16T02:46:45;4.43;;;2.80;;
29550;SDS011;16488;52.396;10.696;2022-10-16T02:49:10;7.70;;;2.90;;
29550;SDS011;16488;52.396;10.696;2022-10-16T02:51:36;4.83;;;2.67;;
29550;SDS011;16488;52.396;10.696;2022-10-16T02:54:02;10.13;;;2.77;;
29550;SDS011;16488;52.396;10.696;2022-10-16T02:56:28;6.28;;;3.03;;
29550;SDS011;16488;52.396;10.696;2022-10-16T02:58:54;7.47;;;2.63;;
29550;SDS011;16488;52.396;10.696;2022-10-16T03:01:20;5.22;;;2.70;;
29550;SDS011;16488;52.396;10.696;2022-10-16T03:03:46;5.18;;;2.55;;
29550;SDS011;16488;52.396;10.696;2022-10-16T03:06:11;10.20;;;3.00;;
29550;SDS011;16488;52.396;10.696;2022-10-16T03:08:37;4.43;;;3.13;;
29550;SDS011;16488;52.396;10.696;2022-10-16T03:11:02;6.47;;;3.60;;
29550;SDS011;16488;52.396;10.696;2022-10-16T03:13:28;3.37;;;2.60;;
29550;SDS011;16488;52.396;10.696;2022-10-16T03:15:54;4.57;;;2.20;;
29550;SDS011;16488;52.396;10.696;2022-10-16T03:18:19;6.33;;;2.67;;
29550;SDS011;16488;52.396;10.696;2022-10-16T03:20:45;5.13;;;2.57;;
29550;SDS011;16488;52.396;10.696;2022-10-16T03:23:10;3.47;;;2.20;;
29550;SDS011;16488;52.396;10.696;2022-10-16T03:25:36;3.15;;;2.60;;
29550;SDS011;16488;52.396;10.696;2022-10-16T03:28:02;9.32;;;2.67;;
29550;SDS011;16488;52.396;10.696;2022-10-16T03:30:28;5.00;;;2.58;;
29550;SDS011;16488;52.396;10.696;2022-10-16T03:32:54;6.00;;;2.63;;
29550;SDS011;16488;52.396;10.696;2022-10-16T03:35:20;4.37;;;2.33;;
29550;SDS011;16488;52.396;10.696;2022-10-16T03:37:46;5.53;;;3.05;;
29550;SDS011;16488;52.396;10.696;2022-10-16T03:40:12;6.18;;;2.60;;
29550;SDS011;16488;52.396;10.696;2022-10-16T03:42:37;5.90;;;2.75;;
29550;SDS011;16488;52.396;10.696;2022-10-16T03:45:03;5.53;;;2.40;;
29550;SDS011;16488;52.396;10.696;2022-10-16T03:49:57;9.75;;;2.70;;
29550;SDS011;16488;52.396;10.696;2022-10-16T03:52:23;6.95;;;2.83;;
29550;SDS011;16488;52.396;10.696;2022-10-16T03:54:49;5.40;;;3.05;;
29550;SDS011;16488;52.396;10.696;2022-10-16T03:57:15;6.88;;;2.78;;
29550;SDS011;16488;52.396;10.696;2022-10-16T03:59:40;7.68;;;2.85;;
29550;SDS011;16488;52.396;10.696;2022-10-16T04:02:06;8.37;;;2.87;;
29550;SDS011;16488;52.396;10.696;2022-10-16T04:04:31;3.67;;;2.73;;
29550;SDS011;16488;52.396;10.696;2022-10-16T04:06:57;4.60;;;2.88;;
29550;SDS011;16488;52.396;10.696;2022-10-16T04:09:22;5.27;;;3.00;;
29550;SDS011;16488;52.396;10.696;2022-10-16T04:11:48;17.42;;;3.33;;
29550;SDS011;16488;52.396;10.696;2022-10-16T04:14:14;4.78;;;3.17;;
29550;SDS011;16488;52.396;10.696;2022-10-16T04:16:39;7.40;;;3.27;;
29550;SDS011;16488;52.396;10.696;2022-10-16T04:19:05;10.67;;;3.40;;
29550;SDS011;16488;52.396;10.696;2022-10-16T04:21:30;3.60;;;2.53;;
29550;SDS011;16488;52.396;10.696;2022-10-16T04:23:56;5.90;;;2.90;;
29550;SDS011;16488;52.396;10.696;2022-10-16T04:26:21;9.33;;;3.43;;
29550;SDS011;16488;52.396;10.696;2022-10-16T04:28:47;7.45;;;2.70;;
29550;SDS011;16488;52.396;10.696;2022-10-16T04:31:12;8.97;;;3.57;;
29550;SDS011;16488;52.396;10.696;2022-10-16T04:33:38;13.77;;;3.83;;
29550;SDS011;16488;52.396;10.696;2022-10-16T04:36:03;11.73;;;4.33;;
29550;SDS011;16488;52.396;10.696;2022-10-16T04:38:29;12.52;;;3.42;;
29550;SDS011;16488;52.396;10.696;2022-10-16T04:40:55;9.18;;;3.95;;
29550;SDS011;16488;52.396;10.696;2022-10-16T04:43:21;8.60;;;3.20;;
29550;SDS011;16488;52.396;10.696;2022-10-16T04:45:47;6.55;;;3.80;;
29550;SDS011;16488;52.396;10.696;2022-10-16T04:48:12;5.80;;;3.20;;
29550;SDS011;16488;52.396;10.696;2022-10-16T04:50:38;13.38;;;4.00;;
29550;SDS011;16488;52.396;10.696;2022-10-16T04:53:03;8.00;;;3.93;;
29550;SDS011;16488;52.396;10.696;2022-10-16T04:55:29;6.68;;;4.15;;
29550;SDS011;16488;52.396;10.696;2022-10-16T04:57:55;12.30;;;4.57;;
29550;SDS011;16488;52.396;10.696;2022-10-16T05:00:20;6.53;;;3.47;;
29550;SDS011;16488;52.396;10.696;2022-10-16T05:02:47;11.65;;;4.15;;
29550;SDS011;16488;52.396;10.696;2022-10-16T05:05:14;6.40;;;3.35;;
29550;SDS011;16488;52.396;10.696;2022-10-16T05:07:39;5.90;;;4.23;;
29550;SDS011;16488;52.396;10.696;2022-10-16T05:10:05;12.13;;;3.67;;
29550;SDS011;16488;52.396;10.696;2022-10-16T05:12:31;8.63;;;3.60;;
29550;SDS011;16488;52.396;10.696;2022-10-16T05:14:57;10.50;;;3.85;;
29550;SDS011;16488;52.396;10.696;2022-10-16T05:17:23;13.13;;;4.10;;
29550;SDS011;16488;52.396;10.696;2022-10-16T05:19:50;9.30;;;3.67;;
29550;SDS011;16488;52.396;10.696;2022-10-16T05:22:15;12.43;;;3.63;;
29550;SDS011;16488;52.396;10.696;2022-10-16T05:24:41;8.60;;;3.72;;
29550;SDS011;16488;52.396;10.696;2022-10-16T05:27:07;7.68;;;4.35;;
29550;SDS011;16488;52.396;10.696;2022-10-16T05:29:32;9.82;;;4.28;;
29550;SDS011;16488;52.396;10.696;2022-10-16T05:31:58;9.90;;;5.18;;
29550;SDS011;16488;52.396;10.696;2022-10-16T05:34:23;13.47;;;4.60;;
29550;SDS011;16488;52.396;10.696;2022-10-16T05:36:49;10.43;;;4.13;;
29550;SDS011;16488;52.396;10.696;2022-10-16T05:39:15;10.32;;;4.63;;
29550;SDS011;16488;52.396;10.696;2022-10-16T05:41:41;7.43;;;3.75;;
29550;SDS011;16488;52.396;10.696;2022-10-16T05:44:07;14.20;;;4.00;;
29550;SDS011;16488;52.396;10.696;2022-10-16T05:46:32;13.63;;;4.23;;
29550;SDS011;16488;52.396;10.696;2022-10-16T05:48:58;10.98;;;3.70;;
29550;SDS011;16488;52.396;10.696;2022-10-16T05:51:24;6.20;;;3.40;;
29550;SDS011;16488;52.396;10.696;2022-10-16T05:53:49;8.55;;;3.45;;
29550;SDS011;16488;52.396;10.696;2022-10-16T05:56:15;12.77;;;3.77;;
29550;SDS011;16488;52.396;10.696;2022-10-16T05:58:41;7.35;;;3.53;;
29550;SDS011;16488;52.396;10.696;2022-10-16T06:01:09;8.25;;;3.30;;
29550;SDS011;16488;52.396;10.696;2022-10-16T06:03:36;4.53;;;3.33;;
29550;SDS011;16488;52.396;10.696;2022-10-16T06:06:11;6.60;;;3.67;;
29550;SDS011;16488;52.396;10.696;2022-10-16T06:08:46;7.18;;;4.88;;
29550;SDS011;16488;52.396;10.696;2022-10-16T06:11:14;10.10;;;4.38;;
29550;SDS011;16488;52.396;10.696;2022-10-16T06:13:41;12.77;;;5.35;;
29550;SDS011;16488;52.396;10.696;2022-10-16T06:16:07;4.68;;;3.90;;
29550;SDS011;16488;52.396;10.696;2022-10-16T06:18:34;8.20;;;3.85;;
29550;SDS011;16488;52.396;10.696;2022-10-16T06:21:00;6.72;;;4.10;;
29550;SDS011;16488;52.396;10.696;2022-10-16T06:23:33;7.53;;;4.05;;
29550;SDS011;16488;52.396;10.696;2022-10-16T06:26:06;11.47;;;4.53;;
29550;SDS011;16488;52.396;10.696;2022-10-16T06:31:02;9.13;;;4.45;;
29550;SDS011;16488;52.396;10.696;2022-10-16T06:33:29;11.07;;;5.00;;
29550;SDS011;16488;52.396;10.696;2022-10-16T06:38:53;5.70;;;3.33;;
29550;SDS011;16488;52.396;10.696;2022-10-16T06:41:20;7.95;;;3.90;;
29550;SDS011;16488;52.396;10.696;2022-10-16T06:43:47;9.18;;;4.20;;
29550;SDS011;16488;52.396;10.696;2022-10-16T06:46:14;6.88;;;3.65;;
29550;SDS011;16488;52.396;10.696;2022-10-16T06:48:41;6.78;;;4.13;;
29550;SDS011;16488;52.396;10.696;2022-10-16T06:51:12;9.07;;;4.03;;
29550;SDS011;16488;52.396;10.696;2022-10-16T06:53:40;11.05;;;4.40;;
29550;SDS011;16488;52.396;10.696;2022-10-16T06:56:12;7.03;;;5.32;;
29550;SDS011;16488;52.396;10.696;2022-10-16T06:58:40;6.20;;;5.22;;
29550;SDS011;16488;52.396;10.696;2022-10-16T07:01:07;19.88;;;5.80;;
29550;SDS011;16488;52.396;10.696;2022-10-16T07:08:30;9.80;;;4.78;;
29550;SDS011;16488;52.396;10.696;2022-10-16T07:10:58;11.18;;;5.07;;
29550;SDS011;16488;52.396;10.696;2022-10-16T07:13:26;5.28;;;4.30;;
29550;SDS011;16488;52.396;10.696;2022-10-16T07:15:52;10.23;;;4.60;;
29550;SDS011;16488;52.396;10.696;2022-10-16T07:18:17;4.67;;;3.73;;
29550;SDS011;16488;52.396;10.696;2022-10-16T07:20:43;7.28;;;3.80;;
29550;SDS011;16488;52.396;10.696;2022-10-16T07:23:09;5.47;;;3.53;;
29550;SDS011;16488;52.396;10.696;2022-10-16T07:25:34;8.10;;;3.80;;
29550;SDS011;16488;52.396;10.696;2022-10-16T07:28:00;6.17;;;2.77;;
29550;SDS011;16488;52.396;10.696;2022-10-16T07:30:25;4.80;;;2.70;;
29550;SDS011;16488;52.396;10.696;2022-10-16T07:32:51;3.73;;;2.77;;
29550;SDS011;16488;52.396;10.696;2022-10-16T07:35:16;4.60;;;2.22;;
29550;SDS011;16488;52.396;10.696;2022-10-16T07:37:45;4.30;;;2.83;;
29550;SDS011;16488;52.396;10.696;2022-10-16T07:40:11;6.07;;;2.90;;
29550;SDS011;16488;52.396;10.696;2022-10-16T07:42:37;3.42;;;2.80;;
29550;SDS011;16488;52.396;10.696;2022-10-16T07:45:02;7.47;;;3.03;;
29550;SDS011;16488;52.396;10.696;2022-10-16T07:47:28;5.55;;;2.55;;
29550;SDS011;16488;52.396;10.696;2022-10-16T07:49:54;4.07;;;2.77;;
29550;SDS011;16488;52.396;10.696;2022-10-16T07:52:19;3.23;;;2.60;;
29550;SDS011;16488;52.396;10.696;2022-10-16T07:54:45;5.73;;;2.80;;
29550;SDS011;16488;52.396;10.696;2022-10-16T07:57:10;4.57;;;2.20;;
29550;SDS011;16488;52.396;10.696;2022-10-16T07:59:36;9.05;;;2.67;;
29550;SDS011;16488;52.396;10.696;2022-10-16T08:02:02;5.60;;;2.17;;
29550;SDS011;16488;52.396;10.696;2022-10-16T08:04:27;8.63;;;2.58;;
29550;SDS011;16488;52.396;10.696;2022-10-16T08:06:53;7.40;;;2.63;;
29550;SDS011;16488;52.396;10.696;2022-10-16T08:09:19;4.35;;;2.17;;
29550;SDS011;16488;52.396;10.696;2022-10-16T08:11:44;8.30;;;2.10;;
29550;SDS011;16488;52.396;10.696;2022-10-16T08:14:10;7.43;;;2.80;;
29550;SDS011;16488;52.396;10.696;2022-10-16T08:16:36;3.17;;;2.08;;
29550;SDS011;16488;52.396;10.696;2022-10-16T08:19:01;13.13;;;2.30;;
29550;SDS011;16488;52.396;10.696;2022-10-16T08:21:27;5.45;;;1.92;;
29550;SDS011;16488;52.396;10.696;2022-10-16T08:23:53;4.57;;;1.90;;
29550;SDS011;16488;52.396;10.696;2022-10-16T08:26:19;3.17;;;1.73;;
29550;SDS011;16488;52.396;10.696;2022-10-16T08:28:45;2.90;;;1.95;;
29550;SDS011;16488;52.396;10.696;2022-10-16T08:31:14;3.88;;;1.80;;
29550;SDS011;16488;52.396;10.696;2022-10-16T08:33:42;3.83;;;1.70;;
29550;SDS011;16488;52.396;10.696;2022-10-16T08:36:09;3.30;;;1.67;;
29550;SDS011;16488;52.396;10.696;2022-10-16T08:38:36;3.78;;;1.77;;
29550;SDS011;16488;52.396;10.696;2022-10-16T08:41:13;6.13;;;2.38;;
29550;SDS011;16488;52.396;10.696;2022-10-16T08:44:18;3.15;;;1.23;;
29550;SDS011;16488;52.396;10.696;2022-10-16T08:47:48;2.15;;;1.80;;
29550;SDS011;16488;52.396;10.696;2022-10-16T08:50:09;1.48;;;0.80;;
29550;SDS011;16488;52.396;10.696;2022-10-16T08:52:38;1.20;;;1.00;;
29550;SDS011;16488;52.396;10.696;2022-10-16T08:55:08;2.83;;;0.70;;
29550;SDS011;16488;52.396;10.696;2022-10-16T08:57:51;1.92;;;0.70;;
29550;SDS011;16488;52.396;10.696;2022-10-16T09:00:17;6.03;;;0.85;;
29550;SDS011;16488;52.396;10.696;2022-10-16T09:02:45;6.15;;;0.80;;
29550;SDS011;16488;52.396;10.696;2022-10-16T09:10:58;5.15;;;1.15;;
29550;SDS011;16488;52.396;10.696;2022-10-16T09:13:53;2.72;;;0.82;;
29550;SDS011;16488;52.396;10.696;2022-10-16T09:16:28;2.83;;;1.30;;
29550;SDS011;16488;52.396;10.696;2022-10-16T09:19:01;3.03;;;0.75;;
29550;SDS011;16488;52.396;10.696;2022-10-16T09:21:41;1.60;;;0.70;;
29550;SDS011;16488;52.396;10.696;2022-10-16T09:24:12;1.08;;;0.82;;
29550;SDS011;16488;52.396;10.696;2022-10-16T09:26:43;5.15;;;1.05;;
29550;SDS011;16488;52.396;10.696;2022-10-16T09:29:13;3.90;;;1.20;;
29550;SDS011;16488;52.396;10.696;2022-10-16T09:31:42;1.17;;;0.70;;
29550;SDS011;16488;52.396;10.696;2022-10-16T09:36:43;2.90;;;0.88;;
29550;SDS011;16488;52.396;10.696;2022-10-16T09:39:11;6.68;;;0.90;;
29550;SDS011;16488;52.396;10.696;2022-10-16T09:41:37;1.38;;;0.80;;
29550;SDS011;16488;52.396;10.696;2022-10-16T09:44:15;4.97;;;1.08;;
29550;SDS011;16488;52.396;10.696;2022-10-16T09:47:00;1.50;;;0.90;;
29550;SDS011;16488;52.396;10.696;2022-10-16T09:52:27;2.50;;;0.70;;
29550;SDS011;16488;52.396;10.696;2022-10-16T09:54:58;4.88;;;1.13;;
29550;SDS011;16488;52.396;10.696;2022-10-16T09:57:26;0.93;;;0.80;;
29550;SDS011;16488;52.396;10.696;2022-10-16T09:59:53;1.77;;;1.05;;
29550;SDS011;16488;52.396;10.696;2022-10-16T10:02:38;1.70;;;0.85;;
29550;SDS011;16488;52.396;10.696;2022-10-16T10:05:04;0.80;;;0.80;;
29550;SDS011;16488;52.396;10.696;2022-10-16T10:07:35;1.40;;;0.90;;
29550;SDS011;16488;52.396;10.696;2022-10-16T10:10:18;1.63;;;1.13;;
29550;SDS011;16488;52.396;10.696;2022-10-16T10:12:46;1.52;;;0.70;;
29550;SDS011;16488;52.396;10.696;2022-10-16T10:15:12;1.08;;;0.90;;
29550;SDS011;16488;52.396;10.696;2022-10-16T10:17:46;0.82;;;0.73;;
29550;SDS011;16488;52.396;10.696;2022-10-16T10:22:44;4.93;;;0.85;;
29550;SDS011;16488;52.396;10.696;2022-10-16T10:30:44;1.85;;;1.25;;
29550;SDS011;16488;52.396;10.696;2022-10-16T10:36:25;4.28;;;0.63;;
29550;SDS011;16488;52.396;10.696;2022-10-16T10:38:59;3.90;;;0.90;;
29550;SDS011;16488;52.396;10.696;2022-10-16T11:06:56;2.90;;;0.75;;
29550;SDS011;16488;52.396;10.696;2022-10-16T11:09:46;3.33;;;0.98;;
29550;SDS011;16488;52.396;10.696;2022-10-16T11:12:30;1.92;;;0.47;;
29550;SDS011;16488;52.396;10.696;2022-10-16T11:17:54;3.63;;;0.75;;
29550;SDS011;16488;52.396;10.696;2022-10-16T11:20:44;3.50;;;0.52;;
29550;SDS011;16488;52.396;10.696;2022-10-16T11:23:24;3.35;;;0.52;;
29550;SDS011;16488;52.396;10.696;2022-10-16T11:26:00;2.72;;;0.57;;
29550;SDS011;16488;52.396;10.696;2022-10-16T11:28:42;4.03;;;0.93;;
29550;SDS011;16488;52.396;10.696;2022-10-16T11:39:29;3.53;;;0.90;;
29550;SDS011;16488;52.396;10.696;2022-10-16T11:47:43;2.17;;;0.60;;
29550;SDS011;16488;52.396;10.696;2022-10-16T11:50:25;2.45;;;0.98;;
29550;SDS011;16488;52.396;10.696;2022-10-16T11:55:24;6.05;;;1.35;;
29550;SDS011;16488;52.396;10.696;2022-10-16T12:06:50;6.15;;;0.90;;
29550;SDS011;16488;52.396;10.696;2022-10-16T12:09:29;1.48;;;0.90;;
29550;SDS011;16488;52.396;10.696;2022-10-16T12:11:57;2.25;;;0.82;;
29550;SDS011;16488;52.396;10.696;2022-10-16T12:17:02;5.95;;;1.02;;
29550;SDS011;16488;52.396;10.696;2022-10-16T12:19:58;1.73;;;0.77;;
29550;SDS011;16488;52.396;10.696;2022-10-16T12:22:36;4.20;;;0.88;;
29550;SDS011;16488;52.396;10.696;2022-10-16T12:25:17;4.72;;;0.93;;
29550;SDS011;16488;52.396;10.696;2022-10-16T12:28:01;4.90;;;0.90;;
29550;SDS011;16488;52.396;10.696;2022-10-16T12:30:32;2.20;;;0.73;;
29550;SDS011;16488;52.396;10.696;2022-10-16T12:33:04;2.17;;;0.60;;
29550;SDS011;16488;52.396;10.696;2022-10-16T12:35:43;1.85;;;0.70;;
29550;SDS011;16488;52.396;10.696;2022-10-16T12:38:26;6.88;;;1.50;;
29550;SDS011;16488;52.396;10.696;2022-10-16T12:40:59;1.83;;;0.60;;
29550;SDS011;16488;52.396;10.696;2022-10-16T12:48:35;5.40;;;0.80;;
29550;SDS011;16488;52.396;10.696;2022-10-16T12:51:10;3.13;;;1.17;;
29550;SDS011;16488;52.396;10.696;2022-10-16T12:53:35;1.38;;;0.60;;
29550;SDS011;16488;52.396;10.696;2022-10-16T12:56:03;1.93;;;0.63;;
29550;SDS011;16488;52.396;10.696;2022-10-16T13:07:40;3.72;;;0.43;;
29550;SDS011;16488;52.396;10.696;2022-10-16T13:21:33;2.90;;;0.60;;
29550;SDS011;16488;52.396;10.696;2022-10-16T13:29:41;5.15;;;0.98;;
29550;SDS011;16488;52.396;10.696;2022-10-16T13:32:07;1.90;;;0.45;;
29550;SDS011;16488;52.396;10.696;2022-10-16T13:34:46;2.80;;;0.57;;
29550;SDS011;16488;52.396;10.696;2022-10-16T13:39:48;1.60;;;0.65;;
29550;SDS011;16488;52.396;10.696;2022-10-16T13:42:24;1.83;;;0.60;;
29550;SDS011;16488;52.396;10.696;2022-10-16T13:44:51;2.28;;;0.75;;
29550;SDS011;16488;52.396;10.696;2022-10-16T13:47:19;2.28;;;1.08;;
29550;SDS011;16488;52.396;10.696;2022-10-16T13:50:06;4.13;;;1.10;;
29550;SDS011;16488;52.396;10.696;2022-10-16T13:52:39;1.27;;;0.70;;
29550;SDS011;16488;52.396;10.696;2022-10-16T13:55:10;3.47;;;0.80;;
29550;SDS011;16488;52.396;10.696;2022-10-16T13:57:37;4.00;;;0.93;;
29550;SDS011;16488;52.396;10.696;2022-10-16T14:00:03;3.27;;;1.03;;
29550;SDS011;16488;52.396;10.696;2022-10-16T14:02:50;1.48;;;0.70;;
29550;SDS011;16488;52.396;10.696;2022-10-16T14:05:22;0.90;;;0.52;;
29550;SDS011;16488;52.396;10.696;2022-10-16T14:07:49;1.85;;;0.82;;
29550;SDS011;16488;52.396;10.696;2022-10-16T14:10:20;1.88;;;0.60;;
29550;SDS011;16488;52.396;10.696;2022-10-16T14:12:56;15.75;;;1.52;;
29550;SDS011;16488;52.396;10.696;2022-10-16T14:15:24;5.85;;;0.70;;
29550;SDS011;16488;52.396;10.696;2022-10-16T14:17:50;2.28;;;0.50;;
29550;SDS011;16488;52.396;10.696;2022-10-16T14:20:17;1.45;;;0.50;;
29550;SDS011;16488;52.396;10.696;2022-10-16T14:22:43;2.70;;;0.50;;
29550;SDS011;16488;52.396;10.696;2022-10-16T14:27:45;3.40;;;0.55;;
29550;SDS011;16488;52.396;10.696;2022-10-16T14:30:21;1.65;;;0.43;;
29550;SDS011;16488;52.396;10.696;2022-10-16T14:32:57;1.95;;;0.55;;
29550;SDS011;16488;52.396;10.696;2022-10-16T14:37:52;0.70;;;0.43;;
29550;SDS011;16488;52.396;10.696;2022-10-16T14:40:20;0.68;;;0.50;;
29550;SDS011;16488;52.396;10.696;2022-10-16T14:42:52;2.33;;;0.40;;
29550;SDS011;16488;52.396;10.696;2022-10-16T14:45:19;6.45;;;0.60;;
29550;SDS011;16488;52.396;10.696;2022-10-16T14:47:57;1.42;;;0.63;;
29550;SDS011;16488;52.396;10.696;2022-10-16T14:50:26;1.95;;;0.43;;
29550;SDS011;16488;52.396;10.696;2022-10-16T14:52:52;4.80;;;0.50;;
29550;SDS011;16488;52.396;10.696;2022-10-16T14:55:18;3.90;;;0.65;;
29550;SDS011;16488;52.396;10.696;2022-10-16T14:57:44;6.60;;;0.50;;
29550;SDS011;16488;52.396;10.696;2022-10-16T15:02:36;0.68;;;0.50;;
29550;SDS011;16488;52.396;10.696;2022-10-16T15:05:12;0.85;;;0.43;;
29550;SDS011;16488;52.396;10.696;2022-10-16T15:07:40;2.85;;;0.75;;
29550;SDS011;16488;52.396;10.696;2022-10-16T15:10:06;2.78;;;0.75;;
29550;SDS011;16488;52.396;10.696;2022-10-16T15:12:31;2.65;;;0.50;;
29550;SDS011;16488;52.396;10.696;2022-10-16T15:14:57;4.20;;;0.73;;
29550;SDS011;16488;52.396;10.696;2022-10-16T15:17:22;1.67;;;0.90;;
29550;SDS011;16488;52.396;10.696;2022-10-16T15:19:48;1.97;;;0.87;;
29550;SDS011;16488;52.396;10.696;2022-10-16T15:22:13;2.17;;;0.60;;
29550;SDS011;16488;52.396;10.696;2022-10-16T15:24:39;1.13;;;0.47;;
29550;SDS011;16488;52.396;10.696;2022-10-16T15:27:04;0.85;;;0.45;;
29550;SDS011;16488;52.396;10.696;2022-10-16T15:29:30;1.73;;;0.87;;
29550;SDS011;16488;52.396;10.696;2022-10-16T15:31:56;2.47;;;0.50;;
29550;SDS011;16488;52.396;10.696;2022-10-16T15:34:21;1.88;;;0.90;;
29550;SDS011;16488;52.396;10.696;2022-10-16T15:36:47;0.70;;;0.40;;
29550;SDS011;16488;52.396;10.696;2022-10-16T15:39:14;3.53;;;0.60;;
29550;SDS011;16488;52.396;10.696;2022-10-16T15:41:41;1.40;;;0.68;;
29550;SDS011;16488;52.396;10.696;2022-10-16T15:44:07;1.52;;;0.52;;
29550;SDS011;16488;52.396;10.696;2022-10-16T15:46:33;1.57;;;0.53;;
29550;SDS011;16488;52.396;10.696;2022-10-16T15:48:59;3.47;;;1.20;;
29550;SDS011;16488;52.396;10.696;2022-10-16T15:53:57;8.60;;;1.35;;
29550;SDS011;16488;52.396;10.696;2022-10-16T15:56:23;1.80;;;0.60;;
29550;SDS011;16488;52.396;10.696;2022-10-16T15:58:50;4.95;;;1.33;;
29550;SDS011;16488;52.396;10.696;2022-10-16T16:01:17;2.95;;;0.75;;
29550;SDS011;16488;52.396;10.696;2022-10-16T16:03:42;1.83;;;0.90;;
29550;SDS011;16488;52.396;10.696;2022-10-16T16:08:36;4.20;;;0.90;;
29550;SDS011;16488;52.396;10.696;2022-10-16T16:13:30;3.22;;;1.30;;
29550;SDS011;16488;52.396;10.696;2022-10-16T16:15:55;3.63;;;1.03;;
29550;SDS011;16488;52.396;10.696;2022-10-16T16:18:21;5.22;;;1.42;;
29550;SDS011;16488;52.396;10.696;2022-10-16T16:20:48;5.90;;;0.90;;
29550;SDS011;16488;52.396;10.696;2022-10-16T16:23:14;1.63;;;0.93;;
29550;SDS011;16488;52.396;10.696;2022-10-16T16:25:40;4.17;;;1.50;;
29550;SDS011;16488;52.396;10.696;2022-10-16T16:28:06;6.35;;;1.40;;
29550;SDS011;16488;52.396;10.696;2022-10-16T16:30:32;1.65;;;0.98;;
29550;SDS011;16488;52.396;10.696;2022-10-16T16:32:57;5.13;;;0.90;;
29550;SDS011;16488;52.396;10.696;2022-10-16T16:35:23;3.00;;;0.70;;
29550;SDS011;16488;52.396;10.696;2022-10-16T16:37:48;6.80;;;1.00;;
29550;SDS011;16488;52.396;10.696;2022-10-16T16:40:14;5.53;;;1.60;;
29550;SDS011;16488;52.396;10.696;2022-10-16T16:42:40;3.47;;;1.23;;
29550;SDS011;16488;52.396;10.696;2022-10-16T16:45:05;4.33;;;0.93;;
29550;SDS011;16488;52.396;10.696;2022-10-16T16:47:31;6.63;;;1.20;;
29550;SDS011;16488;52.396;10.696;2022-10-16T16:49:57;8.25;;;1.00;;
29550;SDS011;16488;52.396;10.696;2022-10-16T16:52:22;8.07;;;1.08;;
29550;SDS011;16488;52.396;10.696;2022-10-16T16:54:48;7.07;;;1.00;;
29550;SDS011;16488;52.396;10.696;2022-10-16T16:57:17;13.57;;;1.15;;
29550;SDS011;16488;52.396;10.696;2022-10-16T16:59:43;10.75;;;1.20;;
29550;SDS011;16488;52.396;10.696;2022-10-16T17:02:09;8.73;;;1.92;;
29550;SDS011;16488;52.396;10.696;2022-10-16T17:04:35;7.80;;;1.60;;
29550;SDS011;16488;52.396;10.696;2022-10-16T17:07:00;4.77;;;1.10;;
29550;SDS011;16488;52.396;10.696;2022-10-16T17:09:26;19.73;;;4.13;;
29550;SDS011;16488;52.396;10.696;2022-10-16T17:11:51;12.68;;;1.83;;
29550;SDS011;16488;52.396;10.696;2022-10-16T17:14:17;9.37;;;2.67;;
29550;SDS011;16488;52.396;10.696;2022-10-16T17:19:11;13.27;;;3.15;;
29550;SDS011;16488;52.396;10.696;2022-10-16T17:21:39;5.80;;;1.60;;
29550;SDS011;16488;52.396;10.696;2022-10-16T17:24:05;9.52;;;1.75;;
29550;SDS011;16488;52.396;10.696;2022-10-16T17:26:31;6.72;;;1.65;;
29550;SDS011;16488;52.396;10.696;2022-10-16T17:28:58;8.07;;;1.90;;